Terminal Aerodrome Forecast
Issued by NWS

Home | Current Version | Previous Version | Text Only | Print | Product List | Glossary On
Versions: 1 2 3 4 5 6 7 8 9 10 11 12 13 14 15 16 17 18 19 20 21 22 23 24 25 26 27 28 29 30 31 32 33 34 35 36 37 38
000
FTUS43 KGRB 241100 RRA
TAFRHI
TAF
KRHI 241141Z 2412/2512 32005KT 5SM -DZ OVC006
     FM241600 31009KT 2SM -RASN OVC005
     FM241800 33012G20KT 3/4SM -SN OVC006
     FM250200 30012G18KT 6SM -SN OVC012=

USA.gov is the U.S. government's official web portal to all federal, state and local government web resources and services.